TimeCDT,TemperatureF,Dew PointF,Humidity,Sea Level PressureIn,VisibilityMPH,Wind Direction,Wind SpeedMPH,Gust SpeedMPH,PrecipitationIn,Events,Conditions,WindDirDegrees,DateUTC
12:53 AM,48.0,35.1,61,30.19,10.0,ENE,5.8,-,N/A,,Clear,60,2012-10-05 05:53:00
1:53 AM,46.9,35.1,63,30.18,10.0,ENE,5.8,-,N/A,,Clear,70,2012-10-05 06:53:00
3:53 AM,46.0,36.0,68,30.16,10.0,NE,4.6,-,N/A,,Clear,40,2012-10-05 08:53:00
4:53 AM,45.0,37.0,74,30.16,10.0,NE,3.5,-,N/A,,Clear,40,2012-10-05 09:53:00
5:53 AM,45.0,36.0,71,30.16,10.0,ENE,8.1,-,N/A,,Clear,60,2012-10-05 10:53:00
6:53 AM,45.0,35.1,68,30.15,10.0,East,8.1,-,N/A,,Clear,80,2012-10-05 11:53:00
7:53 AM,44.1,35.1,71,30.16,10.0,East,8.1,-,N/A,,Clear,90,2012-10-05 12:53:00
8:53 AM,46.0,36.0,68,30.18,10.0,NE,6.9,-,N/A,,Scattered Clouds,50,2012-10-05 13:53:00
9:53 AM,46.9,36.0,66,30.19,10.0,East,10.4,-,N/A,,Overcast,100,2012-10-05 14:53:00
10:53 AM,48.9,36.0,61,30.21,10.0,ENE,9.2,-,N/A,,Overcast,70,2012-10-05 15:53:00
11:53 AM,50.0,35.1,57,30.22,10.0,East,8.1,-,N/A,,Overcast,90,2012-10-05 16:53:00
12:53 PM,51.1,35.1,54,30.20,10.0,ENE,9.2,-,N/A,,Overcast,70,2012-10-05 17:53:00
1:53 PM,52.0,35.1,53,30.17,10.0,ENE,11.5,-,N/A,,Overcast,70,2012-10-05 18:53:00
2:53 PM,53.1,34.0,48,30.14,10.0,ENE,11.5,-,N/A,,Overcast,70,2012-10-05 19:53:00
3:53 PM,54.0,33.1,45,30.13,10.0,ENE,11.5,-,N/A,,Overcast,60,2012-10-05 20:53:00
4:53 PM,53.1,32.0,45,30.14,10.0,ENE,13.8,-,N/A,,Overcast,60,2012-10-05 21:53:00
5:53 PM,53.1,32.0,45,30.14,10.0,ENE,12.7,-,N/A,,Overcast,70,2012-10-05 22:53:00
6:53 PM,52.0,30.9,45,30.17,10.0,ENE,15.0,20.7,N/A,,Overcast,60,2012-10-05 23:53:00
7:53 PM,48.9,30.0,48,30.20,10.0,NE,17.3,24.2,N/A,,Overcast,50,2012-10-06 00:53:00
8:53 PM,48.0,28.9,48,30.22,10.0,NE,18.4,-,N/A,,Overcast,40,2012-10-06 01:53:00
9:53 PM,45.0,30.9,58,30.27,10.0,NE,15.0,-,N/A,,Overcast,40,2012-10-06 02:53:00
10:53 PM,44.1,32.0,63,30.28,10.0,NE,12.7,-,N/A,,Overcast,50,2012-10-06 03:53:00
11:53 PM,43.0,32.0,65,30.28,10.0,ENE,13.8,-,N/A,,Overcast,70,2012-10-06 04:53:00